sensor_id;sensor_type;location;lat;lon;timestamp;pressure;altitude;pressure_sealevel;temperature;humidity
57114;BME280;42994;51.606;9.988;2023-02-28T00:00:36;100412.09;;;-3.64;100.00
57114;BME280;42994;51.606;9.988;2023-02-28T00:03:03;100412.00;;;-3.83;100.00
57114;BME280;42994;51.606;9.988;2023-02-28T00:05:30;100406.00;;;-3.65;100.00
57114;BME280;42994;51.606;9.988;2023-02-28T00:07:56;100412.88;;;-3.62;100.00
57114;BME280;42994;51.606;9.988;2023-02-28T00:10:26;100410.44;;;-3.88;100.00
57114;BME280;42994;51.606;9.988;2023-02-28T00:12:54;100406.91;;;-3.87;100.00
57114;BME280;42994;51.606;9.988;2023-02-28T00:15:23;100416.69;;;-4.11;100.00
57114;BME280;42994;51.606;9.988;2023-02-28T00:17:50;100408.94;;;-4.14;100.00
57114;BME280;42994;51.606;9.988;2023-02-28T00:20:17;100413.91;;;-3.87;100.00
57114;BME280;42994;51.606;9.988;2023-02-28T00:22:46;100409.47;;;-3.85;100.00
57114;BME280;42994;51.606;9.988;2023-02-28T00:25:15;100413.72;;;-3.82;100.00
57114;BME280;42994;51.606;9.988;2023-02-28T00:27:44;100410.06;;;-3.99;100.00
57114;BME280;42994;51.606;9.988;2023-02-28T00:30:13;100414.91;;;-3.90;100.00
57114;BME280;42994;51.606;9.988;2023-02-28T00:32:40;100409.47;;;-3.85;100.00
57114;BME280;42994;51.606;9.988;2023-02-28T00:35:08;100410.13;;;-3.80;100.00
57114;BME280;42994;51.606;9.988;2023-02-28T00:37:35;100418.56;;;-3.73;100.00
57114;BME280;42994;51.606;9.988;2023-02-28T00:40:02;100415.63;;;-4.07;100.00
57114;BME280;42994;51.606;9.988;2023-02-28T00:42:31;100420.94;;;-3.88;100.00
57114;BME280;42994;51.606;9.988;2023-02-28T00:44:59;100406.59;;;-3.99;100.00
57114;BME280;42994;51.606;9.988;2023-02-28T00:47:26;100415.13;;;-3.94;100.00
57114;BME280;42994;51.606;9.988;2023-02-28T00:49:54;100412.88;;;-3.83;100.00
57114;BME280;42994;51.606;9.988;2023-02-28T00:52:20;100410.94;;;-3.78;100.00
57114;BME280;42994;51.606;9.988;2023-02-28T00:54:47;100416.03;;;-3.95;100.00
57114;BME280;42994;51.606;9.988;2023-02-28T00:57:14;100420.97;;;-3.89;100.00
57114;BME280;42994;51.606;9.988;2023-02-28T00:59:40;100420.25;;;-3.93;100.00
57114;BME280;42994;51.606;9.988;2023-02-28T01:02:08;100424.66;;;-3.93;100.00
57114;BME280;42994;51.606;9.988;2023-02-28T01:04:36;100410.66;;;-3.92;100.00
57114;BME280;42994;51.606;9.988;2023-02-28T01:07:02;100410.31;;;-4.05;100.00
57114;BME280;42994;51.606;9.988;2023-02-28T01:09:29;100414.06;;;-3.90;100.00
57114;BME280;42994;51.606;9.988;2023-02-28T01:11:57;100402.03;;;-3.94;100.00
57114;BME280;42994;51.606;9.988;2023-02-28T01:14:24;100410.00;;;-3.97;100.00
57114;BME280;42994;51.606;9.988;2023-02-28T01:16:51;100407.75;;;-3.86;100.00
57114;BME280;42994;51.606;9.988;2023-02-28T01:19:19;100399.84;;;-3.84;100.00
57114;BME280;42994;51.606;9.988;2023-02-28T01:21:45;100404.09;;;-3.82;100.00
57114;BME280;42994;51.606;9.988;2023-02-28T01:24:12;100399.00;;;-3.85;100.00
57114;BME280;42994;51.606;9.988;2023-02-28T01:26:39;100395.00;;;-3.94;100.00
57114;BME280;42994;51.606;9.988;2023-02-28T01:29:06;100391.06;;;-3.83;100.00
57114;BME280;42994;51.606;9.988;2023-02-28T01:31:33;100391.53;;;-3.74;100.00
57114;BME280;42994;51.606;9.988;2023-02-28T01:34:00;100391.78;;;-3.80;100.00
57114;BME280;42994;51.606;9.988;2023-02-28T01:36:29;100387.94;;;-3.92;100.00
57114;BME280;42994;51.606;9.988;2023-02-28T01:38:56;100387.88;;;-3.90;100.00
57114;BME280;42994;51.606;9.988;2023-02-28T01:41:24;100384.13;;;-3.84;100.00
57114;BME280;42994;51.606;9.988;2023-02-28T01:43:58;100390.09;;;-3.81;100.00
57114;BME280;42994;51.606;9.988;2023-02-28T01:46:28;100391.00;;;-3.82;100.00
57114;BME280;42994;51.606;9.988;2023-02-28T01:49:00;100382.25;;;-4.01;100.00
57114;BME280;42994;51.606;9.988;2023-02-28T01:51:33;100386.41;;;-3.97;100.00
57114;BME280;42994;51.606;9.988;2023-02-28T01:54:06;100387.00;;;-3.91;100.00
57114;BME280;42994;51.606;9.988;2023-02-28T01:56:43;100385.81;;;-3.83;100.00
57114;BME280;42994;51.606;9.988;2023-02-28T01:59:14;100375.59;;;-3.90;100.00
57114;BME280;42994;51.606;9.988;2023-02-28T02:01:43;100378.03;;;-3.85;100.00
57114;BME280;42994;51.606;9.988;2023-02-28T02:04:10;100383.34;;;-3.87;100.00
57114;BME280;42994;51.606;9.988;2023-02-28T02:06:42;100380.66;;;-3.85;100.00
57114;BME280;42994;51.606;9.988;2023-02-28T02:09:09;100386.69;;;-3.83;100.00
57114;BME280;42994;51.606;9.988;2023-02-28T02:11:37;100384.97;;;-3.84;100.00
57114;BME280;42994;51.606;9.988;2023-02-28T02:14:32;100372.53;;;-3.99;100.00
57114;BME280;42994;51.606;9.988;2023-02-28T02:17:10;100375.16;;;-3.99;100.00
57114;BME280;42994;51.606;9.988;2023-02-28T02:22:53;100369.00;;;-3.98;100.00
57114;BME280;42994;51.606;9.988;2023-02-28T02:25:32;100376.78;;;-4.17;100.00
57114;BME280;42994;51.606;9.988;2023-02-28T02:28:36;100366.25;;;-3.95;100.00
57114;BME280;42994;51.606;9.988;2023-02-28T02:37:24;100366.09;;;-4.13;100.00
57114;BME280;42994;51.606;9.988;2023-02-28T02:40:03;100365.88;;;-4.07;100.00
57114;BME280;42994;51.606;9.988;2023-02-28T02:42:39;100357.22;;;-4.09;100.00
57114;BME280;42994;51.606;9.988;2023-02-28T02:45:12;100361.13;;;-4.19;100.00
57114;BME280;42994;51.606;9.988;2023-02-28T02:47:41;100359.84;;;-4.09;100.00
57114;BME280;42994;51.606;9.988;2023-02-28T02:50:14;100357.00;;;-4.04;100.00
57114;BME280;42994;51.606;9.988;2023-02-28T02:52:45;100352.50;;;-4.00;100.00
57114;BME280;42994;51.606;9.988;2023-02-28T02:55:17;100365.19;;;-3.91;100.00
57114;BME280;42994;51.606;9.988;2023-02-28T02:57:48;100367.81;;;-3.91;100.00
57114;BME280;42994;51.606;9.988;2023-02-28T03:00:17;100364.69;;;-3.99;100.00
57114;BME280;42994;51.606;9.988;2023-02-28T03:02:46;100363.09;;;-4.03;100.00
57114;BME280;42994;51.606;9.988;2023-02-28T03:05:18;100366.66;;;-4.04;100.00
57114;BME280;42994;51.606;9.988;2023-02-28T03:07:47;100366.53;;;-4.01;100.00
57114;BME280;42994;51.606;9.988;2023-02-28T03:10:34;100374.09;;;-3.95;100.00
57114;BME280;42994;51.606;9.988;2023-02-28T03:13:13;100371.22;;;-3.89;100.00
57114;BME280;42994;51.606;9.988;2023-02-28T03:15:57;100363.22;;;-3.86;100.00
57114;BME280;42994;51.606;9.988;2023-02-28T03:18:30;100368.88;;;-3.95;100.00
57114;BME280;42994;51.606;9.988;2023-02-28T03:21:04;100366.97;;;-3.92;100.00
57114;BME280;42994;51.606;9.988;2023-02-28T03:23:42;100372.16;;;-3.90;100.00
57114;BME280;42994;51.606;9.988;2023-02-28T03:26:17;100374.63;;;-3.87;100.00
57114;BME280;42994;51.606;9.988;2023-02-28T03:28:52;100365.41;;;-3.96;100.00
57114;BME280;42994;51.606;9.988;2023-02-28T03:31:26;100366.25;;;-3.95;100.00
57114;BME280;42994;51.606;9.988;2023-02-28T03:33:57;100363.09;;;-4.03;100.00
57114;BME280;42994;51.606;9.988;2023-02-28T03:36:27;100372.59;;;-4.01;100.00
57114;BME280;42994;51.606;9.988;2023-02-28T03:38:58;100361.47;;;-4.06;100.00
57114;BME280;42994;51.606;9.988;2023-02-28T03:41:31;100369.59;;;-4.12;100.00
57114;BME280;42994;51.606;9.988;2023-02-28T03:44:03;100369.78;;;-3.96;100.00
57114;BME280;42994;51.606;9.988;2023-02-28T03:46:33;100368.03;;;-3.96;100.00
57114;BME280;42994;51.606;9.988;2023-02-28T03:49:07;100378.09;;;-3.87;100.00
57114;BME280;42994;51.606;9.988;2023-02-28T03:51:38;100371.09;;;-3.86;100.00
57114;BME280;42994;51.606;9.988;2023-02-28T03:54:11;100377.22;;;-3.87;100.00
57114;BME280;42994;51.606;9.988;2023-02-28T03:56:42;100370.50;;;-3.93;100.00
57114;BME280;42994;51.606;9.988;2023-02-28T03:59:13;100370.44;;;-3.91;100.00
57114;BME280;42994;51.606;9.988;2023-02-28T04:01:43;100373.00;;;-3.90;100.00
57114;BME280;42994;51.606;9.988;2023-02-28T04:04:10;100374.56;;;-3.86;100.00
57114;BME280;42994;51.606;9.988;2023-02-28T04:06:38;100373.59;;;-3.83;100.00
57114;BME280;42994;51.606;9.988;2023-02-28T04:09:06;100381.09;;;-3.75;100.00
57114;BME280;42994;51.606;9.988;2023-02-28T04:11:36;100377.00;;;-3.81;100.00
57114;BME280;42994;51.606;9.988;2023-02-28T04:14:04;100377.09;;;-3.84;100.00
57114;BME280;42994;51.606;9.988;2023-02-28T04:16:32;100370.81;;;-3.80;100.00
57114;BME280;42994;51.606;9.988;2023-02-28T04:18:59;100377.06;;;-3.82;100.00
57114;BME280;42994;51.606;9.988;2023-02-28T04:21:28;100377.00;;;-3.81;100.00
57114;BME280;42994;51.606;9.988;2023-02-28T04:23:55;100382.00;;;-3.76;100.00
57114;BME280;42994;51.606;9.988;2023-02-28T04:26:28;100379.31;;;-3.75;100.00
57114;BME280;42994;51.606;9.988;2023-02-28T04:28:56;100382.72;;;-3.73;100.00
57114;BME280;42994;51.606;9.988;2023-02-28T04:31:23;100377.50;;;-3.73;100.00
57114;BME280;42994;51.606;9.988;2023-02-28T04:33:50;100384.56;;;-3.75;100.00
57114;BME280;42994;51.606;9.988;2023-02-28T04:36:17;100388.69;;;-3.69;100.00
57114;BME280;42994;51.606;9.988;2023-02-28T04:38:44;100385.88;;;-3.64;100.00
57114;BME280;42994;51.606;9.988;2023-02-28T04:41:11;100386.06;;;-3.69;100.00
57114;BME280;42994;51.606;9.988;2023-02-28T04:43:38;100376.59;;;-3.72;100.00
57114;BME280;42994;51.606;9.988;2023-02-28T04:46:06;100371.53;;;-3.76;100.00
57114;BME280;42994;51.606;9.988;2023-02-28T04:48:36;100378.97;;;-3.67;100.00
57114;BME280;42994;51.606;9.988;2023-02-28T04:51:04;100380.16;;;-3.74;100.00
57114;BME280;42994;51.606;9.988;2023-02-28T04:53:31;100382.53;;;-3.68;100.00
57114;BME280;42994;51.606;9.988;2023-02-28T04:55:58;100382.66;;;-3.71;100.00
57114;BME280;42994;51.606;9.988;2023-02-28T04:58:25;100386.00;;;-3.68;100.00
57114;BME280;42994;51.606;9.988;2023-02-28T05:00:52;100384.03;;;-3.62;100.00
57114;BME280;42994;51.606;9.988;2023-02-28T05:03:20;100383.03;;;-3.60;100.00
57114;BME280;42994;51.606;9.988;2023-02-28T05:05:48;100378.72;;;-3.61;100.00
57114;BME280;42994;51.606;9.988;2023-02-28T05:08:14;100379.63;;;-3.62;100.00
57114;BME280;42994;51.606;9.988;2023-02-28T05:10:41;100389.16;;;-3.59;100.00
57114;BME280;42994;51.606;9.988;2023-02-28T05:13:09;100388.38;;;-3.61;100.00
57114;BME280;42994;51.606;9.988;2023-02-28T05:15:37;100380.50;;;-3.61;100.00
57114;BME280;42994;51.606;9.988;2023-02-28T05:18:04;100381.53;;;-3.65;100.00
57114;BME280;42994;51.606;9.988;2023-02-28T05:20:32;100391.97;;;-3.64;100.00
57114;BME280;42994;51.606;9.988;2023-02-28T05:23:00;100389.16;;;-3.59;100.00
57114;BME280;42994;51.606;9.988;2023-02-28T05:25:28;100380.50;;;-3.61;100.00
57114;BME280;42994;51.606;9.988;2023-02-28T05:27:55;100386.59;;;-3.61;100.00
57114;BME280;42994;51.606;9.988;2023-02-28T05:30:21;100383.97;;;-3.61;100.00
57114;BME280;42994;51.606;9.988;2023-02-28T05:32:50;100382.06;;;-3.57;100.00
57114;BME280;42994;51.606;9.988;2023-02-28T05:35:17;100391.69;;;-3.58;100.00
57114;BME280;42994;51.606;9.988;2023-02-28T05:37:45;100392.56;;;-3.57;100.00
57114;BME280;42994;51.606;9.988;2023-02-28T05:40:12;100398.69;;;-3.58;100.00
57114;BME280;42994;51.606;9.988;2023-02-28T05:42:40;100396.94;;;-3.58;100.00
57114;BME280;42994;51.606;9.988;2023-02-28T05:45:07;100395.13;;;-3.56;100.00
57114;BME280;42994;51.606;9.988;2023-02-28T05:47:34;100396.84;;;-3.56;100.00
57114;BME280;42994;51.606;9.988;2023-02-28T05:50:01;100393.41;;;-3.57;100.00
57114;BME280;42994;51.606;9.988;2023-02-28T05:52:28;100394.97;;;-3.53;100.00
57114;BME280;42994;51.606;9.988;2023-02-28T05:54:56;100396.81;;;-3.55;100.00
57114;BME280;42994;51.606;9.988;2023-02-28T05:57:24;100407.88;;;-3.48;100.00
57114;BME280;42994;51.606;9.988;2023-02-28T05:59:51;100405.38;;;-3.51;100.00
57114;BME280;42994;51.606;9.988;2023-02-28T06:02:18;100399.47;;;-3.56;100.00
57114;BME280;42994;51.606;9.988;2023-02-28T06:04:44;100399.47;;;-3.56;100.00
57114;BME280;42994;51.606;9.988;2023-02-28T06:07:11;100410.56;;;-3.50;100.00
57114;BME280;42994;51.606;9.988;2023-02-28T06:09:38;100415.88;;;-3.51;100.00
57114;BME280;42994;51.606;9.988;2023-02-28T06:12:07;100406.38;;;-3.54;100.00
57114;BME280;42994;51.606;9.988;2023-02-28T06:14:35;100413.25;;;-3.51;100.00
57114;BME280;42994;51.606;9.988;2023-02-28T06:17:02;100414.97;;;-3.50;100.00
57114;BME280;42994;51.606;9.988;2023-02-28T06:19:29;100420.19;;;-3.50;100.00
57114;BME280;42994;51.606;9.988;2023-02-28T06:21:56;100419.25;;;-3.49;100.00
57114;BME280;42994;51.606;9.988;2023-02-28T06:24:25;100415.75;;;-3.48;100.00
57114;BME280;42994;51.606;9.988;2023-02-28T06:26:54;100422.66;;;-3.47;100.00
57114;BME280;42994;51.606;9.988;2023-02-28T06:29:22;100419.91;;;-3.44;100.00
57114;BME280;42994;51.606;9.988;2023-02-28T06:31:49;100417.34;;;-3.45;100.00
57114;BME280;42994;51.606;9.988;2023-02-28T06:34:16;100416.44;;;-3.44;100.00
57114;BME280;42994;51.606;9.988;2023-02-28T06:36:43;100425.16;;;-3.44;100.00
57114;BME280;42994;51.606;9.988;2023-02-28T06:39:10;100425.09;;;-3.42;100.00
57114;BME280;42994;51.606;9.988;2023-02-28T06:41:37;100427.78;;;-3.44;100.00
57114;BME280;42994;51.606;9.988;2023-02-28T06:44:05;100432.13;;;-3.43;100.00
57114;BME280;42994;51.606;9.988;2023-02-28T06:46:33;100441.59;;;-3.40;100.00
57114;BME280;42994;51.606;9.988;2023-02-28T06:49:00;100456.44;;;-3.39;100.00
57114;BME280;42994;51.606;9.988;2023-02-28T06:51:26;100446.78;;;-3.39;100.00
57114;BME280;42994;51.606;9.988;2023-02-28T06:53:53;100448.47;;;-3.38;100.00
57114;BME280;42994;51.606;9.988;2023-02-28T06:56:20;100451.97;;;-3.37;100.00
57114;BME280;42994;51.606;9.988;2023-02-28T06:58:46;100449.28;;;-3.36;100.00
57114;BME280;42994;51.606;9.988;2023-02-28T07:01:14;100444.88;;;-3.35;100.00
57114;BME280;42994;51.606;9.988;2023-02-28T07:03:42;100442.97;;;-3.32;100.00
57114;BME280;42994;51.606;9.988;2023-02-28T07:06:09;100446.38;;;-3.30;100.00
57114;BME280;42994;51.606;9.988;2023-02-28T07:08:36;100448.16;;;-3.30;100.00
57114;BME280;42994;51.606;9.988;2023-02-28T07:11:03;100457.53;;;-3.24;100.00
57114;BME280;42994;51.606;9.988;2023-02-28T07:13:29;100455.69;;;-3.22;100.00
57114;BME280;42994;51.606;9.988;2023-02-28T07:15:57;100459.78;;;-3.17;100.00
57114;BME280;42994;51.606;9.988;2023-02-28T07:18:24;100459.88;;;-3.18;100.00
57114;BME280;42994;51.606;9.988;2023-02-28T07:20:53;100458.00;;;-3.16;100.00
57114;BME280;42994;51.606;9.988;2023-02-28T07:23:20;100463.78;;;-3.08;100.00
57114;BME280;42994;51.606;9.988;2023-02-28T07:25:47;100460.22;;;-3.07;100.00
57114;BME280;42994;51.606;9.988;2023-02-28T07:28:13;100463.63;;;-3.05;100.00
57114;BME280;42994;51.606;9.988;2023-02-28T07:30:41;100457.19;;;-2.98;100.00
57114;BME280;42994;51.606;9.988;2023-02-28T07:33:07;100459.97;;;-3.01;100.00
57114;BME280;42994;51.606;9.988;2023-02-28T07:35:34;100462.25;;;-2.93;100.00
57114;BME280;42994;51.606;9.988;2023-02-28T07:38:02;100462.81;;;-2.86;100.00
57114;BME280;42994;51.606;9.988;2023-02-28T07:40:29;100467.63;;;-2.77;100.00
57114;BME280;42994;51.606;9.988;2023-02-28T07:42:56;100464.91;;;-2.76;100.00
57114;BME280;42994;51.606;9.988;2023-02-28T07:45:25;100467.47;;;-2.74;100.00
57114;BME280;42994;51.606;9.988;2023-02-28T07:47:51;100475.09;;;-2.68;100.00
57114;BME280;42994;51.606;9.988;2023-02-28T07:50:18;100466.84;;;-2.60;100.00
57114;BME280;42994;51.606;9.988;2023-02-28T07:52:44;100472.66;;;-2.54;100.00
57114;BME280;42994;51.606;9.988;2023-02-28T07:55:12;100472.31;;;-2.46;100.00
57114;BME280;42994;51.606;9.988;2023-02-28T07:57:42;100477.38;;;-2.43;100.00
57114;BME280;42994;51.606;9.988;2023-02-28T08:00:11;100471.03;;;-2.37;100.00
57114;BME280;42994;51.606;9.988;2023-02-28T08:02:39;100480.38;;;-2.32;100.00
57114;BME280;42994;51.606;9.988;2023-02-28T08:05:07;100472.97;;;-2.23;100.00
57114;BME280;42994;51.606;9.988;2023-02-28T08:07:34;100469.44;;;-2.22;100.00
57114;BME280;42994;51.606;9.988;2023-02-28T08:10:00;100469.59;;;-2.08;100.00
57114;BME280;42994;51.606;9.988;2023-02-28T08:12:28;100467.75;;;-2.06;100.00
57114;BME280;42994;51.606;9.988;2023-02-28T08:14:55;100462.03;;;-1.97;100.00
57114;BME280;42994;51.606;9.988;2023-02-28T08:17:22;100463.72;;;-1.96;100.00
57114;BME280;42994;51.606;9.988;2023-02-28T08:19:48;100466.06;;;-1.89;100.00
57114;BME280;42994;51.606;9.988;2023-02-28T08:22:15;100459.50;;;-1.81;100.00
57114;BME280;42994;51.606;9.988;2023-02-28T08:24:42;100460.88;;;-1.74;100.00
57114;BME280;42994;51.606;9.988;2023-02-28T08:27:09;100456.50;;;-1.73;100.00
57114;BME280;42994;51.606;9.988;2023-02-28T08:29:38;100456.88;;;-1.63;100.00
57114;BME280;42994;51.606;9.988;2023-02-28T08:32:05;100459.34;;;-1.60;100.00
57114;BME280;42994;51.606;9.988;2023-02-28T08:34:33;100462.59;;;-1.55;100.00
57114;BME280;42994;51.606;9.988;2023-02-28T08:36:59;100448.44;;;-1.52;100.00
57114;BME280;42994;51.606;9.988;2023-02-28T08:39:26;100460.47;;;-1.48;100.00
57114;BME280;42994;51.606;9.988;2023-02-28T08:41:52;100461.72;;;-1.38;100.00
57114;BME280;42994;51.606;9.988;2023-02-28T08:44:19;100462.56;;;-1.38;100.00
57114;BME280;42994;51.606;9.988;2023-02-28T08:46:47;100456.88;;;-1.30;100.00
57114;BME280;42994;51.606;9.988;2023-02-28T08:49:14;100460.22;;;-1.26;100.00
57114;BME280;42994;51.606;9.988;2023-02-28T08:51:40;100459.91;;;-1.20;100.00
57114;BME280;42994;51.606;9.988;2023-02-28T08:54:08;100459.91;;;-1.20;100.00
57114;BME280;42994;51.606;9.988;2023-02-28T08:56:35;100462.47;;;-1.19;100.00
57114;BME280;42994;51.606;9.988;2023-02-28T08:59:02;100459.06;;;-1.05;100.00
57114;BME280;42994;51.606;9.988;2023-02-28T09:01:30;100457.75;;;-0.96;100.00
57114;BME280;42994;51.606;9.988;2023-02-28T09:03:59;100464.13;;;-0.84;100.00
57114;BME280;42994;51.606;9.988;2023-02-28T09:06:28;100462.44;;;-0.85;100.00
57114;BME280;42994;51.606;9.988;2023-02-28T09:08:56;100453.19;;;-0.61;100.00
57114;BME280;42994;51.606;9.988;2023-02-28T09:11:25;100460.16;;;-0.44;100.00
57114;BME280;42994;51.606;9.988;2023-02-28T09:13:52;100465.25;;;-0.41;100.00
57114;BME280;42994;51.606;9.988;2023-02-28T09:16:18;100464.41;;;-0.41;100.00
57114;BME280;42994;51.606;9.988;2023-02-28T09:18:45;100461.59;;;-0.38;100.00
57114;BME280;42994;51.606;9.988;2023-02-28T09:21:14;100455.28;;;-0.20;100.00
57114;BME280;42994;51.606;9.988;2023-02-28T09:23:42;100455.16;;;-0.02;100.00
57114;BME280;42994;51.606;9.988;2023-02-28T09:26:13;100452.41;;;0.15;100.00
57114;BME280;42994;51.606;9.988;2023-02-28T09:28:40;100462.91;;;0.01;100.00
57114;BME280;42994;51.606;9.988;2023-02-28T09:31:12;100458.41;;;0.33;100.00
57114;BME280;42994;51.606;9.988;2023-02-28T09:33:38;100461.50;;;0.40;100.00
57114;BME280;42994;51.606;9.988;2023-02-28T09:36:06;100465.47;;;0.47;100.00
57114;BME280;42994;51.606;9.988;2023-02-28T09:38:34;100465.88;;;0.55;100.00
57114;BME280;42994;51.606;9.988;2023-02-28T09:41:03;100467.66;;;0.41;100.00
57114;BME280;42994;51.606;9.988;2023-02-28T09:43:34;100465.88;;;0.55;100.00
57114;BME280;42994;51.606;9.988;2023-02-28T09:46:08;100462.00;;;0.47;100.00
57114;BME280;42994;51.606;9.988;2023-02-28T09:48:39;100459.97;;;0.66;100.00
57114;BME280;42994;51.606;9.988;2023-02-28T09:51:14;100463.72;;;0.62;100.00
57114;BME280;42994;51.606;9.988;2023-02-28T09:53:43;100455.59;;;0.65;100.00
57114;BME280;42994;51.606;9.988;2023-02-28T09:56:13;100446.00;;;1.07;100.00
57114;BME280;42994;51.606;9.988;2023-02-28T09:58:45;100459.28;;;1.06;100.00
57114;BME280;42994;51.606;9.988;2023-02-28T10:01:31;100451.44;;;1.19;100.00
57114;BME280;42994;51.606;9.988;2023-02-28T10:04:04;100454.75;;;1.22;100.00
57114;BME280;42994;51.606;9.988;2023-02-28T10:06:39;100450.03;;;1.27;100.00
57114;BME280;42994;51.606;9.988;2023-02-28T10:09:14;100450.38;;;1.50;100.00
57114;BME280;42994;51.606;9.988;2023-02-28T10:11:44;100454.03;;;1.62;100.00
57114;BME280;42994;51.606;9.988;2023-02-28T10:14:14;100443.31;;;1.50;100.00
57114;BME280;42994;51.606;9.988;2023-02-28T10:16:44;100452.56;;;1.43;100.00
57114;BME280;42994;51.606;9.988;2023-02-28T10:19:20;100449.00;;;1.44;100.00
57114;BME280;42994;51.606;9.988;2023-02-28T10:21:55;100448.59;;;1.78;100.00
57114;BME280;42994;51.606;9.988;2023-02-28T10:24:28;100453.38;;;1.58;100.00
57114;BME280;42994;51.606;9.988;2023-02-28T10:27:00;100436.31;;;1.77;100.00
57114;BME280;42994;51.606;9.988;2023-02-28T10:29:27;100441.19;;;1.70;100.00
57114;BME280;42994;51.606;9.988;2023-02-28T10:31:55;100431.28;;;1.59;100.00
57114;BME280;42994;51.606;9.988;2023-02-28T10:34:22;100435.75;;;1.71;100.00
57114;BME280;42994;51.606;9.988;2023-02-28T10:36:50;100438.22;;;1.75;100.00
57114;BME280;42994;51.606;9.988;2023-02-28T10:39:40;100431.53;;;1.69;100.00
57114;BME280;42994;51.606;9.988;2023-02-28T10:42:20;100422.16;;;1.78;100.00
57114;BME280;42994;51.606;9.988;2023-02-28T10:44:47;100435.47;;;2.03;100.00
57114;BME280;42994;51.606;9.988;2023-02-28T10:47:16;100427.72;;;2.00;100.00
57114;BME280;42994;51.606;9.988;2023-02-28T10:49:47;100433.00;;;2.00;100.00
57114;BME280;42994;51.606;9.988;2023-02-28T10:52:33;100422.00;;;1.94;99.06
57114;BME280;42994;51.606;9.988;2023-02-28T10:55:18;100416.06;;;1.90;100.00
57114;BME280;42994;51.606;9.988;2023-02-28T10:57:47;100420.75;;;1.99;100.00
57114;BME280;42994;51.606;9.988;2023-02-28T11:00:16;100410.97;;;1.87;99.64
57114;BME280;42994;51.606;9.988;2023-02-28T11:02:44;100413.84;;;1.97;100.00
57114;BME280;42994;51.606;9.988;2023-02-28T11:05:26;100423.41;;;1.99;100.00
57114;BME280;42994;51.606;9.988;2023-02-28T11:07:54;100416.41;;;1.98;100.00
57114;BME280;42994;51.606;9.988;2023-02-28T11:10:25;100418.72;;;1.90;100.00
57114;BME280;42994;51.606;9.988;2023-02-28T11:12:55;100416.88;;;1.78;100.00
57114;BME280;42994;51.606;9.988;2023-02-28T11:15:24;100399.78;;;1.96;96.71
57114;BME280;42994;51.606;9.988;2023-02-28T11:17:56;100410.28;;;1.98;98.93
57114;BME280;42994;51.606;9.988;2023-02-28T11:20:25;100409.81;;;1.91;99.97
57114;BME280;42994;51.606;9.988;2023-02-28T11:22:53;100411.22;;;1.97;99.47
57114;BME280;42994;51.606;9.988;2023-02-28T11:25:24;100399.25;;;1.91;100.00
57114;BME280;42994;51.606;9.988;2023-02-28T11:27:53;100401.81;;;2.05;99.00
57114;BME280;42994;51.606;9.988;2023-02-28T11:30:32;100402.72;;;1.91;98.74
57114;BME280;42994;51.606;9.988;2023-02-28T11:32:59;100404.44;;;1.92;100.00
57114;BME280;42994;51.606;9.988;2023-02-28T11:35:29;100406.91;;;2.08;100.00
57114;BME280;42994;51.606;9.988;2023-02-28T11:37:57;100399.47;;;2.01;99.97
57114;BME280;42994;51.606;9.988;2023-02-28T11:40:31;100395.84;;;1.89;100.00
57114;BME280;42994;51.606;9.988;2023-02-28T11:43:08;100402.53;;;1.95;100.00
57114;BME280;42994;51.606;9.988;2023-02-28T11:45:45;100398.09;;;2.08;100.00
57114;BME280;42994;51.606;9.988;2023-02-28T11:48:20;100379.84;;;2.30;98.78
57114;BME280;42994;51.606;9.988;2023-02-28T11:51:04;100379.94;;;2.29;99.60
57114;BME280;42994;51.606;9.988;2023-02-28T11:53:52;100386.81;;;2.19;99.20
57114;BME280;42994;51.606;9.988;2023-02-28T11:56:31;100380.47;;;2.21;98.34
57114;BME280;42994;51.606;9.988;2023-02-28T11:59:11;100386.41;;;2.25;98.88
57114;BME280;42994;51.606;9.988;2023-02-28T12:01:48;100376.03;;;2.22;99.01
57114;BME280;42994;51.606;9.988;2023-02-28T12:04:25;100375.81;;;2.25;96.69
57114;BME280;42994;51.606;9.988;2023-02-28T12:06:57;100361.00;;;2.35;96.02
57114;BME280;42994;51.606;9.988;2023-02-28T12:09:52;100366.28;;;2.35;97.66
57114;BME280;42994;51.606;9.988;2023-02-28T12:12:34;100359.31;;;2.60;95.84
57114;BME280;42994;51.606;9.988;2023-02-28T12:15:20;100361.09;;;2.34;96.82
57114;BME280;42994;51.606;9.988;2023-02-28T12:18:11;100360.88;;;2.37;97.04
57114;BME280;42994;51.606;9.988;2023-02-28T12:20:45;100359.84;;;2.39;96.52
57114;BME280;42994;51.606;9.988;2023-02-28T12:23:31;100364.38;;;2.37;96.54
57114;BME280;42994;51.606;9.988;2023-02-28T12:26:08;100356.66;;;2.34;96.05
57114;BME280;42994;51.606;9.988;2023-02-28T12:28:43;100352.31;;;2.46;95.36
57114;BME280;42994;51.606;9.988;2023-02-28T12:31:20;100346.91;;;2.47;94.92
57114;BME280;42994;51.606;9.988;2023-02-28T12:33:51;100353.38;;;2.43;96.01
57114;BME280;42994;51.606;9.988;2023-02-28T12:36:19;100343.53;;;2.45;95.44
57114;BME280;42994;51.606;9.988;2023-02-28T12:38:48;100344.47;;;2.44;96.34
57114;BME280;42994;51.606;9.988;2023-02-28T12:41:19;100337.50;;;2.43;95.39
57114;BME280;42994;51.606;9.988;2023-02-28T12:43:55;100343.84;;;2.54;95.62
57114;BME280;42994;51.606;9.988;2023-02-28T12:46:24;100338.53;;;2.54;95.77
57114;BME280;42994;51.606;9.988;2023-02-28T12:48:53;100334.75;;;2.58;96.74
57114;BME280;42994;51.606;9.988;2023-02-28T12:51:22;100346.47;;;2.54;97.33
57114;BME280;42994;51.606;9.988;2023-02-28T12:53:57;100329.84;;;2.64;96.32
57114;BME280;42994;51.606;9.988;2023-02-28T12:56:34;100332.50;;;2.52;96.61
57114;BME280;42994;51.606;9.988;2023-02-28T12:59:12;100341.97;;;2.43;97.21
57114;BME280;42994;51.606;9.988;2023-02-28T13:01:57;100342.28;;;2.38;97.13
57114;BME280;42994;51.606;9.988;2023-02-28T13:04:52;100334.53;;;2.35;95.97
57114;BME280;42994;51.606;9.988;2023-02-28T13:08:08;100318.97;;;2.43;94.57